»·PEaware :: UAL600 KSFO-RKSI

UAL600 :: KSFO-RKSI

FLIGHT INFORMATION

Flight Status: Arrived
Operator:
United Airlines
More flights by this operator :: More flights under this callsign
Pilot: Petey Y. (19550)
Aircraft: Unknown
(772)
More flights by this aircraft type
Origin: KSFO San Francisco Intl
United States
Destination: RKSI Incheon Intl
Republic of Korea
More flights between these airports :: More routes between these airports
Route: +AMAKR BOXER FULMR FASEL 51N140W 55N150W/N0490F360 PDN G469 NYMPH/K0895F380 R220 NUZAN/N0482F380 R220 NOGAL/N0484F390 R220 NODAN/N0482F380 R217 SDE/N0482F400 R217 GTC L512 TENAS Y437 KAE Y697 KARBU KARBU1P
File this flight plan on PilotEdge
Remarks: RMK / SIMBRIEF
Altitude:
(Current/Filed)
34,000ft
Speed:
(Current/Filed)
483kts
Departed: 03-Mar-20 09:06 PM
Arrived: 04-Mar-20 09:28 AM
Distance/Time
Traveled:
4903nm/12:21
Distance/Time
To Go:
Arrived

Flight Plot

Page will automatically refresh every two minutes.


Map Options




Map Legend


Flown Route
Filed Route
Departure Airport
Arrival Airport
Navaid (VOR, NDB)
Fix

Horizontal Profiles

Position Reports

Time Latitude Longitude Heading Altitude Ground
Speed
03-Mar-20 20:10 37.616504 -122.381229 17 26ft 0kts
03-Mar-20 20:11 37.616505 -122.381229 17 26ft 0kts
03-Mar-20 20:12 37.616506 -122.381228 17 26ft 0kts
03-Mar-20 20:21 37.616517 -122.381224 17 26ft 0kts
03-Mar-20 20:22 37.616517 -122.381224 17 26ft 0kts
03-Mar-20 20:23 37.616519 -122.381223 17 26ft 0kts
03-Mar-20 20:24 37.616520 -122.381223 17 26ft 0kts
03-Mar-20 20:25 37.616521 -122.381222 17 26ft 0kts
03-Mar-20 20:26 37.616523 -122.381222 17 26ft 0kts
03-Mar-20 20:27 37.616524 -122.381221 17 26ft 0kts
03-Mar-20 20:28 37.616526 -122.381220 17 26ft 0kts
03-Mar-20 20:29 37.616527 -122.381220 17 26ft 0kts
03-Mar-20 20:30 37.616528 -122.381219 17 26ft 0kts
03-Mar-20 20:31 37.616530 -122.381219 17 26ft 0kts
03-Mar-20 20:32 37.616531 -122.381218 17 26ft 0kts
03-Mar-20 20:33 37.616533 -122.381218 17 26ft 0kts
03-Mar-20 20:34 37.616534 -122.381217 17 26ft 0kts
03-Mar-20 20:35 37.616535 -122.381216 17 26ft 0kts
03-Mar-20 20:36 37.616537 -122.381216 17 26ft 0kts
03-Mar-20 20:37 37.616538 -122.381215 17 26ft 0kts
03-Mar-20 20:38 37.616539 -122.381215 17 26ft 0kts
03-Mar-20 20:39 37.616541 -122.381214 17 26ft 0kts
03-Mar-20 20:40 37.616541 -122.381214 17 26ft 0kts
03-Mar-20 20:41 37.616541 -122.381214 17 26ft 0kts
03-Mar-20 20:42 37.616542 -122.381214 17 26ft 0kts
03-Mar-20 20:43 37.616543 -122.381213 17 26ft 0kts
03-Mar-20 20:44 37.616544 -122.381213 17 26ft 0kts
03-Mar-20 20:45 37.616546 -122.381212 17 26ft 0kts
03-Mar-20 20:46 37.616547 -122.381212 17 26ft 0kts
03-Mar-20 20:47 37.616549 -122.381211 17 26ft 0kts
03-Mar-20 20:48 37.616550 -122.381210 17 26ft 0kts
03-Mar-20 20:49 37.616552 -122.381210 17 26ft 0kts
03-Mar-20 20:50 37.616553 -122.381209 17 26ft 0kts
03-Mar-20 20:51 37.616120 -122.381386 17 26ft 2kts
03-Mar-20 20:52 37.615821 -122.381507 17 26ft 1kts
03-Mar-20 20:53 37.615513 -122.381617 71 26ft 4kts
03-Mar-20 20:54 37.615510 -122.381462 104 26ft 0kts
03-Mar-20 20:55 37.616333 -122.380116 42 26ft 14kts
03-Mar-20 20:56 37.616704 -122.378196 97 26ft 2kts
03-Mar-20 20:57 37.616022 -122.372542 106 26ft 14kts
03-Mar-20 20:58 37.612939 -122.365928 117 26ft 22kts
03-Mar-20 20:59 37.611047 -122.361434 117 26ft 13kts
03-Mar-20 21:00 37.610724 -122.359412 41 26ft 2kts
03-Mar-20 21:01 37.611180 -122.358974 31 26ft 8kts
03-Mar-20 21:02 37.612760 -122.357870 27 26ft 0kts
03-Mar-20 21:03 37.612930 -122.357757 27 26ft 8kts
03-Mar-20 21:04 37.614287 -122.359035 298 26ft 25kts
03-Mar-20 21:05 37.634163 -122.406240 299 1084ft 220kts
03-Mar-20 21:06 37.685319 -122.455018 330 5047ft 228kts
03-Mar-20 21:07 37.737490 -122.504328 316 6417ft 255kts
03-Mar-20 21:08 37.794057 -122.563432 318 9240ft 269kts
03-Mar-20 21:09 37.854198 -122.622790 318 11883ft 281kts
03-Mar-20 21:10 37.917488 -122.684287 319 14365ft 291kts
03-Mar-20 21:11 37.982878 -122.747630 319 16684ft 302kts
03-Mar-20 21:12 38.050963 -122.813633 319 18873ft 313kts
03-Mar-20 21:13 38.122013 -122.882648 319 20676ft 333kts
03-Mar-20 21:14 38.197998 -122.956639 319 22348ft 356kts
03-Mar-20 21:15 38.278640 -123.035384 319 24241ft 371kts
03-Mar-20 21:16 38.361795 -123.116818 319 26099ft 385kts
03-Mar-20 21:17 38.448201 -123.201693 319 27856ft 399kts
03-Mar-20 21:18 38.537304 -123.289496 319 29508ft 412kts
03-Mar-20 21:19 38.630031 -123.381168 319 30971ft 425kts
03-Mar-20 21:20 38.672111 -123.422872 319 31529ft 432kts
03-Mar-20 21:21 38.721657 -123.472057 319 31669ft 450kts
03-Mar-20 21:22 38.822927 -123.572459 319 32550ft 467kts
03-Mar-20 21:23 38.925848 -123.675558 319 33755ft 470kts
03-Mar-20 21:24 39.032945 -123.771264 329 33998ft 472kts
03-Mar-20 21:25 39.151808 -123.844660 332 33996ft 473kts
03-Mar-20 21:26 39.270735 -123.917633 331 33997ft 473kts
03-Mar-20 21:27 39.389447 -123.990935 331 33996ft 470kts
03-Mar-20 21:28 39.507099 -124.064077 331 33996ft 470kts
03-Mar-20 21:29 39.624922 -124.137760 331 33996ft 470kts
03-Mar-20 21:30 39.741957 -124.211251 331 33997ft 470kts
03-Mar-20 21:31 39.859423 -124.285297 331 33994ft 470kts
03-Mar-20 21:32 39.976256 -124.359226 331 32383ft 456kts
03-Mar-20 21:33 40.088547 -124.430547 331 30718ft 444kts
03-Mar-20 21:34 40.198949 -124.500926 331 29996ft 444kts
03-Mar-20 21:35 40.311916 -124.573206 331 29996ft 454kts
03-Mar-20 21:36 40.425109 -124.645904 331 29996ft 453kts
03-Mar-20 21:37 40.538476 -124.718988 331 29996ft 453kts
03-Mar-20 21:38 40.651158 -124.791905 331 29996ft 453kts
03-Mar-20 21:39 40.764951 -124.865822 330 29996ft 453kts
03-Mar-20 21:40 40.869430 -124.933941 330 29997ft 453kts
03-Mar-20 21:41 40.982683 -125.008051 330 29997ft 453kts
03-Mar-20 21:42 41.095969 -125.082470 330 29997ft 453kts
03-Mar-20 21:43 41.208766 -125.156854 330 29997ft 453kts
03-Mar-20 21:44 41.321793 -125.231681 330 30011ft 455kts
03-Mar-20 21:45 41.437175 -125.308367 330 30000ft 468kts
03-Mar-20 21:47 41.553357 -125.385897 330 29997ft 467kts
03-Mar-20 21:48 41.669557 -125.463752 330 29990ft 467kts
03-Mar-20 21:49 41.786752 -125.542595 330 29997ft 467kts
03-Mar-20 21:50 41.902676 -125.620904 330 29996ft 467kts
03-Mar-20 21:51 42.018227 -125.699280 330 29996ft 467kts
03-Mar-20 21:52 42.134418 -125.778415 330 29996ft 467kts
03-Mar-20 21:53 42.250435 -125.857761 330 29996ft 467kts
03-Mar-20 21:54 42.366316 -125.937343 330 29996ft 467kts
03-Mar-20 21:55 42.482438 -126.017123 330 29996ft 467kts
03-Mar-20 21:56 42.598366 -126.097557 330 29996ft 467kts
03-Mar-20 21:57 42.711023 -126.182509 321 29997ft 464kts
03-Mar-20 21:58 42.809809 -126.295903 314 29997ft 462kts
03-Mar-20 21:59 42.904279 -126.415209 315 29996ft 462kts
03-Mar-20 22:00 42.998703 -126.533608 314 29996ft 462kts
03-Mar-20 22:01 43.092569 -126.652854 314 29997ft 462kts
03-Mar-20 22:02 43.185742 -126.774813 313 29997ft 461kts
03-Mar-20 22:03 43.276488 -126.897986 313 29996ft 461kts
03-Mar-20 22:04 43.367935 -127.022368 313 29996ft 461kts
03-Mar-20 22:05 43.459371 -127.145338 313 29997ft 461kts
03-Mar-20 22:06 43.550872 -127.269756 313 29997ft 461kts
03-Mar-20 22:06 43.626557 -127.373299 313 29996ft 461kts
03-Mar-20 22:08 43.732199 -127.518536 312 29996ft 461kts
03-Mar-20 22:09 43.823553 -127.644758 312 29997ft 461kts
03-Mar-20 22:09 43.898926 -127.749338 312 29997ft 461kts
03-Mar-20 22:11 43.989797 -127.875952 312 29997ft 461kts
03-Mar-20 22:11 44.064418 -127.980362 312 29996ft 461kts
03-Mar-20 22:12 44.155178 -128.107887 312 29996ft 461kts
03-Mar-20 22:13 44.245228 -128.235004 312 29996ft 461kts
03-Mar-20 22:14 44.335353 -128.362817 312 29997ft 461kts
03-Mar-20 22:15 44.424902 -128.490404 312 29996ft 461kts
03-Mar-20 22:16 44.514631 -128.618846 312 29996ft 461kts
03-Mar-20 22:17 44.603775 -128.747047 312 29997ft 461kts
03-Mar-20 22:18 44.693153 -128.876191 312 29997ft 461kts
03-Mar-20 22:19 44.782549 -129.005972 311 29996ft 461kts
03-Mar-20 22:20 44.871443 -129.135636 311 29996ft 460kts
03-Mar-20 22:21 44.960510 -129.266172 311 29996ft 460kts
03-Mar-20 22:22 45.049137 -129.396683 311 29997ft 461kts
03-Mar-20 22:23 45.137462 -129.527374 311 29996ft 460kts
03-Mar-20 22:24 45.226259 -129.659396 311 29996ft 460kts
03-Mar-20 22:25 45.314195 -129.790767 311 29996ft 460kts
03-Mar-20 22:26 45.402645 -129.923550 311 29996ft 460kts
03-Mar-20 22:27 45.490626 -130.056272 311 29996ft 460kts
03-Mar-20 22:28 45.578335 -130.189230 311 29997ft 460kts
03-Mar-20 22:29 45.665962 -130.322716 311 29997ft 460kts
03-Mar-20 22:30 45.753043 -130.456019 310 29996ft 460kts
03-Mar-20 22:31 45.840649 -130.590789 310 29996ft 460kts
03-Mar-20 22:32 45.927720 -130.725401 310 29997ft 460kts
03-Mar-20 22:33 46.015034 -130.861063 310 29997ft 460kts
03-Mar-20 22:34 46.101429 -130.995965 310 29996ft 460kts
03-Mar-20 22:35 46.188078 -131.131940 310 29996ft 460kts
03-Mar-20 22:36 46.274647 -131.268473 310 29996ft 460kts
03-Mar-20 22:37 46.361135 -131.405570 310 29997ft 460kts
03-Mar-20 22:38 46.447056 -131.542456 310 29996ft 460kts
03-Mar-20 22:39 46.532923 -131.679952 310 29996ft 460kts
03-Mar-20 22:40 46.619030 -131.818535 310 29996ft 460kts
03-Mar-20 22:41 46.704552 -131.956884 309 29996ft 460kts
03-Mar-20 22:42 46.790359 -132.096409 309 29997ft 460kts
03-Mar-20 22:43 46.875268 -132.235186 309 29996ft 460kts
03-Mar-20 22:44 46.960618 -132.375406 309 29996ft 460kts
03-Mar-20 22:45 47.045308 -132.515265 309 29996ft 460kts
03-Mar-20 22:46 47.130436 -132.656583 309 29997ft 460kts
03-Mar-20 22:47 47.214639 -132.797095 309 29997ft 460kts
03-Mar-20 22:48 47.299130 -132.938829 309 29996ft 460kts
03-Mar-20 22:49 47.383450 -133.081024 309 29996ft 460kts
03-Mar-20 22:50 47.467303 -133.223179 309 29997ft 460kts
03-Mar-20 22:51 47.550985 -133.365799 308 29996ft 460kts
03-Mar-20 22:52 47.634806 -133.509417 308 29996ft 460kts
03-Mar-20 22:53 47.718449 -133.653499 308 29997ft 460kts
03-Mar-20 22:54 47.801662 -133.797611 308 29997ft 460kts
03-Mar-20 22:55 47.884861 -133.942477 308 29996ft 460kts
03-Mar-20 22:56 47.967886 -134.087824 308 29996ft 460kts
03-Mar-20 22:57 48.050455 -134.233157 308 29997ft 460kts
03-Mar-20 22:58 48.132680 -134.378674 308 29997ft 460kts
03-Mar-20 22:59 48.215603 -134.526231 308 29996ft 460kts
03-Mar-20 23:00 48.297535 -134.672827 308 29996ft 459kts
03-Mar-20 23:01 48.379416 -134.820139 307 29997ft 459kts
03-Mar-20 23:02 48.461345 -134.968356 307 29997ft 459kts
03-Mar-20 23:03 48.542820 -135.116570 307 29996ft 459kts
03-Mar-20 23:04 48.624331 -135.265679 307 29996ft 459kts
03-Mar-20 23:05 48.705361 -135.414739 307 29996ft 459kts
03-Mar-20 23:06 48.786510 -135.564856 307 29997ft 459kts
03-Mar-20 23:07 48.867049 -135.714686 307 29997ft 459kts
03-Mar-20 23:08 48.947739 -135.865648 307 29996ft 459kts
03-Mar-20 23:09 49.028201 -136.017041 307 29996ft 459kts
03-Mar-20 23:10 49.108334 -136.168677 306 29997ft 459kts
03-Mar-20 23:11 49.188383 -136.321021 306 29997ft 459kts
03-Mar-20 23:12 49.267865 -136.473158 306 29996ft 459kts
03-Mar-20 23:13 49.347612 -136.626682 306 29996ft 459kts
03-Mar-20 23:14 49.426500 -136.779433 306 29997ft 459kts
03-Mar-20 23:15 49.505934 -136.934135 306 29997ft 459kts
03-Mar-20 23:16 49.585091 -137.089203 306 29996ft 459kts
03-Mar-20 23:17 49.663814 -137.244326 306 29996ft 459kts
03-Mar-20 23:18 49.742289 -137.399873 306 29997ft 459kts
03-Mar-20 23:19 49.820461 -137.555734 305 29997ft 459kts
03-Mar-20 23:20 49.898456 -137.712164 305 29996ft 459kts
03-Mar-20 23:21 49.976466 -137.869560 305 29996ft 459kts
03-Mar-20 23:22 50.054161 -138.027258 305 29997ft 459kts
03-Mar-20 23:23 50.131757 -138.185705 305 29996ft 459kts
03-Mar-20 23:24 50.208798 -138.343965 305 29996ft 459kts
03-Mar-20 23:25 50.285789 -138.503081 305 29996ft 459kts
03-Mar-20 23:26 50.362649 -138.662893 305 29997ft 459kts
03-Mar-20 23:27 50.439106 -138.822838 304 29996ft 459kts
03-Mar-20 23:28 50.515407 -138.983437 304 29996ft 459kts
03-Mar-20 23:29 50.591447 -139.144469 304 29997ft 459kts
03-Mar-20 23:30 50.667569 -139.306673 304 29997ft 459kts
03-Mar-20 23:31 50.742912 -139.468215 304 29996ft 459kts
03-Mar-20 23:32 50.818300 -139.630858 304 29996ft 459kts
03-Mar-20 23:33 50.893479 -139.794064 304 29997ft 459kts
03-Mar-20 23:34 50.968404 -139.957741 304 29997ft 459kts
03-Mar-20 23:35 51.043348 -140.122495 304 29996ft 458kts
03-Mar-20 23:36 51.117615 -140.286794 303 29996ft 458kts
03-Mar-20 23:37 51.191806 -140.451968 303 29996ft 458kts
03-Mar-20 23:38 51.265788 -140.617728 303 29997ft 458kts
03-Mar-20 23:39 51.339551 -140.784058 303 29996ft 458kts
03-Mar-20 23:40 51.413092 -140.950955 303 29996ft 458kts
03-Mar-20 23:41 51.486348 -141.118281 303 29996ft 458kts
03-Mar-20 23:42 51.559395 -141.286214 303 29997ft 458kts
03-Mar-20 23:43 51.632281 -141.454872 303 29996ft 458kts
03-Mar-20 23:44 51.704667 -141.623469 302 29996ft 458kts
03-Mar-20 23:45 51.776990 -141.793026 302 29996ft 458kts
03-Mar-20 23:46 51.849048 -141.963078 302 29997ft 458kts
03-Mar-20 23:47 51.920842 -142.133633 302 29996ft 458kts
03-Mar-20 23:48 51.992219 -142.304327 302 29996ft 458kts
03-Mar-20 23:49 52.063506 -142.475942 302 29996ft 458kts
03-Mar-20 23:50 52.134559 -142.648146 302 29997ft 458kts
03-Mar-20 23:51 52.205038 -142.820112 301 29996ft 458kts
03-Mar-20 23:52 52.275644 -142.993550 301 29996ft 458kts
03-Mar-20 23:53 52.346118 -143.167850 301 29996ft 458kts
03-Mar-20 23:54 52.415855 -143.341505 301 29997ft 458kts
03-Mar-20 23:55 52.485541 -143.516220 301 29997ft 458kts
03-Mar-20 23:56 52.555176 -143.692017 301 29996ft 458kts
03-Mar-20 23:57 52.624266 -143.867646 301 29996ft 458kts
03-Mar-20 23:58 52.693208 -144.044117 301 29997ft 458kts
03-Mar-20 23:59 52.761850 -144.221052 300 29997ft 458kts
04-Mar-20 00:00 52.830198 -144.398466 300 29996ft 458kts
04-Mar-20 00:02 52.898269 -144.576406 300 29996ft 458kts
04-Mar-20 00:03 52.966008 -144.754734 300 29997ft 458kts
04-Mar-20 00:04 53.033897 -144.934731 300 29997ft 458kts
04-Mar-20 00:05 53.101037 -145.114020 300 29996ft 458kts
04-Mar-20 00:06 53.167975 -145.294049 300 29996ft 458kts
04-Mar-20 00:07 53.234880 -145.475291 299 29996ft 458kts
04-Mar-20 00:08 53.301369 -145.656717 299 29997ft 457kts
04-Mar-20 00:09 53.367502 -145.838484 299 29997ft 457kts
04-Mar-20 00:10 53.433569 -146.021404 299 29996ft 457kts
04-Mar-20 00:11 53.498956 -146.203771 299 29996ft 457kts
04-Mar-20 00:12 53.564278 -146.387307 299 29997ft 457kts
04-Mar-20 00:13 53.629357 -146.571515 299 29997ft 457kts
04-Mar-20 00:14 53.693851 -146.755430 298 29996ft 457kts
04-Mar-20 00:15 53.758545 -146.941298 298 29996ft 457kts
04-Mar-20 00:16 53.822718 -147.127064 298 29996ft 457kts
04-Mar-20 00:17 53.886681 -147.313626 298 29997ft 457kts
04-Mar-20 00:18 53.950208 -147.500327 298 29997ft 457kts
04-Mar-20 00:19 54.013441 -147.687587 298 29996ft 457kts
04-Mar-20 00:19 54.066054 -147.844497 298 29996ft 457kts
04-Mar-20 00:21 54.139340 -148.064751 297 29996ft 457kts
04-Mar-20 00:21 54.191088 -148.221481 297 29996ft 457kts
04-Mar-20 00:23 54.263830 -148.443518 297 29997ft 457kts
04-Mar-20 00:24 54.325658 -148.633853 297 29996ft 457kts
04-Mar-20 00:24 54.376543 -148.791628 297 29996ft 457kts
04-Mar-20 00:26 54.448144 -149.015395 297 29996ft 457kts
04-Mar-20 00:26 54.499044 -149.175740 297 29996ft 457kts
04-Mar-20 00:27 54.559573 -149.367818 296 29997ft 457kts
04-Mar-20 00:28 54.619681 -149.560096 296 29997ft 457kts
04-Mar-20 00:29 54.679762 -149.753841 296 29996ft 457kts
04-Mar-20 00:30 54.739536 -149.948170 296 29996ft 457kts
04-Mar-20 00:31 54.798907 -150.142773 296 29996ft 457kts
04-Mar-20 00:32 54.858077 -150.338311 296 29997ft 457kts
04-Mar-20 00:33 54.916751 -150.533821 296 29997ft 457kts
04-Mar-20 00:34 54.975099 -150.729861 295 29996ft 457kts
04-Mar-20 00:35 55.033237 -150.926830 295 29996ft 457kts
04-Mar-20 00:36 55.091227 -151.124957 295 29997ft 457kts
04-Mar-20 00:37 55.148658 -151.322839 295 29997ft 457kts
04-Mar-20 00:38 55.205581 -151.520641 295 29996ft 457kts
04-Mar-20 00:39 55.262449 -151.719940 295 29996ft 457kts
04-Mar-20 00:40 55.318735 -151.918899 294 29996ft 457kts
04-Mar-20 00:41 55.375187 -152.120180 294 29997ft 456kts
04-Mar-20 00:42 55.430892 -152.320531 294 29997ft 456kts
04-Mar-20 00:43 55.486175 -152.521109 294 29996ft 456kts
04-Mar-20 00:44 55.541399 -152.723239 294 29996ft 456kts
04-Mar-20 00:45 55.596202 -152.925612 294 29996ft 456kts
04-Mar-20 00:46 55.650788 -153.128983 294 29997ft 456kts
04-Mar-20 00:47 55.704670 -153.331539 293 29997ft 456kts
04-Mar-20 00:48 55.758451 -153.535546 293 29996ft 456kts
04-Mar-20 00:49 55.812081 -153.740830 293 29996ft 456kts
04-Mar-20 00:50 55.865061 -153.945485 293 29996ft 456kts
04-Mar-20 00:51 55.917746 -154.150882 293 29996ft 456kts
04-Mar-20 00:52 55.970492 -154.358427 293 29997ft 456kts
04-Mar-20 00:53 56.022441 -154.564750 292 29997ft 456kts
04-Mar-20 00:54 56.074132 -154.771985 292 29996ft 456kts
04-Mar-20 00:55 56.125485 -154.979812 292 29996ft 456kts
04-Mar-20 00:56 56.176391 -155.187794 292 29996ft 456kts
04-Mar-20 00:57 56.227048 -155.396742 292 29997ft 456kts
04-Mar-20 00:58 56.277416 -155.606513 292 29997ft 456kts
04-Mar-20 00:59 56.327468 -155.817003 291 29997ft 456kts
04-Mar-20 01:00 56.376902 -156.026930 291 29996ft 456kts
04-Mar-20 01:01 56.425941 -156.237230 291 29996ft 456kts
04-Mar-20 01:02 56.475018 -156.449787 291 29996ft 456kts
04-Mar-20 01:03 56.523343 -156.661193 291 29997ft 456kts
04-Mar-20 01:04 56.571498 -156.873973 291 29997ft 456kts
04-Mar-20 01:05 56.619409 -157.087831 290 29997ft 456kts
04-Mar-20 01:06 56.666835 -157.301703 290 29996ft 456kts
04-Mar-20 01:07 56.713624 -157.514870 290 29996ft 456kts
04-Mar-20 01:08 56.760412 -157.730250 290 29996ft 456kts
04-Mar-20 01:09 56.806776 -157.945921 290 29997ft 456kts
04-Mar-20 01:10 56.852952 -158.160515 290 29997ft 456kts
04-Mar-20 01:11 56.898472 -158.376909 289 29997ft 456kts
04-Mar-20 01:12 56.942831 -158.594335 286 29997ft 455kts
04-Mar-20 01:13 56.965119 -158.822900 276 29997ft 454kts
04-Mar-20 01:14 56.978544 -159.052559 275 29997ft 454kts
04-Mar-20 01:15 56.991394 -159.283360 275 29997ft 454kts
04-Mar-20 01:16 57.006136 -159.512388 276 29996ft 454kts
04-Mar-20 01:17 57.019472 -159.743927 275 29996ft 454kts
04-Mar-20 01:18 57.031897 -159.972261 275 29996ft 454kts
04-Mar-20 01:19 57.044071 -160.204782 275 29996ft 454kts
04-Mar-20 01:20 57.055762 -160.436573 274 29997ft 454kts
04-Mar-20 01:21 57.066979 -160.667550 274 29997ft 454kts
04-Mar-20 01:22 57.077767 -160.898604 274 29996ft 454kts
04-Mar-20 01:23 57.088147 -161.130194 274 29996ft 454kts
04-Mar-20 01:24 57.098102 -161.361939 274 29996ft 454kts
04-Mar-20 01:25 57.107632 -161.593886 274 29996ft 454kts
04-Mar-20 01:26 57.116685 -161.824687 273 29996ft 454kts
04-Mar-20 01:27 57.125364 -162.056965 273 29997ft 454kts
04-Mar-20 01:28 57.133583 -162.288450 273 29997ft 454kts
04-Mar-20 01:29 57.141401 -162.520846 273 29997ft 454kts
04-Mar-20 01:30 57.148754 -162.752157 273 29997ft 454kts
04-Mar-20 01:31 57.155743 -162.985712 272 29997ft 454kts
04-Mar-20 01:32 57.162264 -163.218088 272 29997ft 454kts
04-Mar-20 01:33 57.168354 -163.450515 272 29996ft 454kts
04-Mar-20 01:34 57.173996 -163.682213 272 29996ft 454kts
04-Mar-20 01:35 57.179239 -163.915272 272 29996ft 454kts
04-Mar-20 01:36 57.184033 -164.147497 271 29996ft 454kts
04-Mar-20 01:37 57.188397 -164.379733 271 29996ft 454kts
04-Mar-20 01:38 57.192367 -164.614147 271 29997ft 454kts
04-Mar-20 01:39 57.195869 -164.846507 271 29997ft 454kts
04-Mar-20 01:40 57.198946 -165.079140 271 29997ft 454kts
04-Mar-20 01:41 57.201596 -165.312211 271 29997ft 454kts
04-Mar-20 01:42 57.203819 -165.545828 270 29997ft 454kts
04-Mar-20 01:43 57.205598 -165.777822 270 29996ft 454kts
04-Mar-20 01:44 57.206958 -166.011687 270 29996ft 454kts
04-Mar-20 01:45 57.207879 -166.244276 270 29996ft 454kts
04-Mar-20 01:46 57.208369 -166.476034 270 29996ft 454kts
04-Mar-20 01:47 57.208431 -166.709483 269 29996ft 454kts
04-Mar-20 01:48 57.208061 -166.943063 269 29997ft 454kts
04-Mar-20 01:49 57.207258 -167.176459 269 29997ft 454kts
04-Mar-20 01:50 57.206022 -167.409750 269 29997ft 454kts
04-Mar-20 01:51 57.204363 -167.642038 269 29997ft 454kts
04-Mar-20 01:52 57.202270 -167.874759 269 29996ft 454kts
04-Mar-20 01:53 57.199737 -168.108242 268 29996ft 454kts
04-Mar-20 01:54 57.196789 -168.340478 268 29996ft 454kts
04-Mar-20 01:55 57.193400 -168.573492 268 29996ft 454kts
04-Mar-20 01:56 57.189589 -168.805919 268 29996ft 454kts
04-Mar-20 01:57 57.185317 -169.040013 268 29996ft 454kts
04-Mar-20 01:58 57.180644 -169.272445 267 29996ft 454kts
04-Mar-20 01:59 57.175536 -169.505151 267 29996ft 454kts
04-Mar-20 02:00 57.170717 -169.737353 268 29996ft 454kts
04-Mar-20 02:01 57.164498 -169.969198 267 29997ft 454kts
04-Mar-20 02:02 57.157701 -170.202435 267 29997ft 454kts
04-Mar-20 02:03 57.146359 -170.434371 263 29997ft 454kts
04-Mar-20 02:04 57.132640 -170.664901 264 29997ft 454kts
04-Mar-20 02:05 57.118894 -170.896807 264 29997ft 454kts
04-Mar-20 02:06 57.106842 -171.127823 264 29997ft 454kts
04-Mar-20 02:07 57.093134 -171.359172 263 29997ft 454kts
04-Mar-20 02:08 57.078871 -171.589720 263 29997ft 454kts
04-Mar-20 02:09 57.064174 -171.819978 263 29997ft 454kts
04-Mar-20 02:10 57.048967 -172.051347 263 29997ft 454kts
04-Mar-20 02:11 57.033447 -172.280875 263 29997ft 454kts
04-Mar-20 02:12 57.017418 -172.511499 263 29997ft 454kts
04-Mar-20 02:13 57.001055 -172.740686 262 29997ft 454kts
04-Mar-20 02:14 56.984202 -172.970666 262 29997ft 454kts
04-Mar-20 02:15 56.966997 -173.199544 262 29997ft 454kts
04-Mar-20 02:16 56.950150 -173.429006 262 29997ft 454kts
04-Mar-20 02:17 56.931577 -173.657654 261 29996ft 454kts
04-Mar-20 02:19 56.913136 -173.884458 263 29998ft 454kts
04-Mar-20 02:20 56.896051 -174.116040 262 29996ft 454kts
04-Mar-20 02:21 56.878636 -174.343478 262 29996ft 454kts
04-Mar-20 02:22 56.861326 -174.573315 263 29997ft 454kts
04-Mar-20 02:23 56.844587 -174.801872 262 29996ft 454kts
04-Mar-20 02:24 56.826684 -175.028626 262 29996ft 454kts
04-Mar-20 02:25 56.808084 -175.257864 261 29997ft 454kts
04-Mar-20 02:26 56.789267 -175.484417 261 29996ft 454kts
04-Mar-20 02:27 56.769828 -175.713233 261 29997ft 454kts
04-Mar-20 02:28 56.750852 -175.940039 261 29997ft 454kts
04-Mar-20 02:29 56.730081 -176.167830 261 29997ft 454kts
04-Mar-20 02:30 56.703851 -176.392093 254 29997ft 455kts
04-Mar-20 02:31 56.664499 -176.611555 252 29997ft 455kts
04-Mar-20 02:32 56.625006 -176.829560 252 29997ft 455kts
04-Mar-20 02:33 56.586731 -177.048807 253 29997ft 455kts
04-Mar-20 02:34 56.548117 -177.267800 252 29997ft 455kts
04-Mar-20 02:35 56.508691 -177.485428 252 29997ft 455kts
04-Mar-20 02:36 56.468943 -177.701815 252 29997ft 455kts
04-Mar-20 02:37 56.428524 -177.919256 252 29997ft 455kts
04-Mar-20 02:38 56.387941 -178.135084 252 29997ft 455kts
04-Mar-20 02:38 56.353666 -178.315477 251 29996ft 455kts
04-Mar-20 02:40 56.305481 -178.566245 251 29997ft 455kts
04-Mar-20 02:40 56.270500 -178.746275 251 29996ft 455kts
04-Mar-20 02:41 56.228522 -178.960130 251 29996ft 455kts
04-Mar-20 02:43 56.178787 -179.210522 251 29997ft 455kts
04-Mar-20 02:43 56.143022 -179.388629 251 29996ft 455kts
04-Mar-20 02:44 56.099813 -179.601691 250 29996ft 455kts
04-Mar-20 02:45 56.056203 -179.814443 250 29996ft 455kts
04-Mar-20 02:46 56.012090 179.972625 250 29996ft 455kts
04-Mar-20 02:47 55.967688 179.760549 250 29996ft 456kts
04-Mar-20 02:48 55.923016 179.549395 250 29996ft 456kts
04-Mar-20 02:49 55.877844 179.338082 250 29996ft 456kts
04-Mar-20 02:50 55.832366 179.127514 249 29996ft 456kts
04-Mar-20 02:51 55.786523 178.917412 249 29996ft 456kts
04-Mar-20 02:52 55.740321 178.707795 249 29996ft 456kts
04-Mar-20 02:53 55.693645 178.498153 249 29996ft 456kts
04-Mar-20 02:54 55.646873 178.290162 249 29996ft 456kts
04-Mar-20 02:55 55.599537 178.081734 249 29996ft 456kts
04-Mar-20 02:56 55.551850 177.873819 248 29996ft 456kts
04-Mar-20 02:57 55.503988 177.667167 248 29996ft 456kts
04-Mar-20 02:58 55.455503 177.459843 248 29996ft 456kts
04-Mar-20 02:59 55.407033 177.254568 248 29996ft 456kts
04-Mar-20 03:00 55.357747 177.047820 248 29996ft 456kts
04-Mar-20 03:01 55.308728 176.844130 248 29996ft 456kts
04-Mar-20 03:02 55.258816 176.638671 248 29996ft 456kts
04-Mar-20 03:03 55.208873 176.435005 247 29996ft 456kts
04-Mar-20 03:04 55.158160 176.230110 247 29996ft 456kts
04-Mar-20 03:05 55.107687 176.028061 247 29996ft 456kts
04-Mar-20 03:06 55.056483 175.824951 247 29996ft 456kts
04-Mar-20 03:07 55.004936 175.622339 247 29996ft 456kts
04-Mar-20 03:08 54.953340 175.421361 247 29996ft 456kts
04-Mar-20 03:09 54.901042 175.219473 246 29996ft 456kts
04-Mar-20 03:10 54.848490 175.018410 246 29996ft 456kts
04-Mar-20 03:11 54.795738 174.818369 246 29996ft 456kts
04-Mar-20 03:12 54.742642 174.618791 246 29996ft 456kts
04-Mar-20 03:13 54.689388 174.420361 246 29996ft 456kts
04-Mar-20 03:14 54.635426 174.221033 246 29996ft 456kts
04-Mar-20 03:15 54.581347 174.023001 245 29996ft 456kts
04-Mar-20 03:16 54.526867 173.825204 245 29996ft 456kts
04-Mar-20 03:17 54.472199 173.628416 245 29996ft 456kts
04-Mar-20 03:18 54.417333 173.432575 245 29996ft 456kts
04-Mar-20 03:19 54.361774 173.235916 245 29996ft 456kts
04-Mar-20 03:20 54.306954 173.040939 245 29996ft 456kts
04-Mar-20 03:21 54.250207 172.845047 244 29996ft 457kts
04-Mar-20 03:22 54.197761 172.647803 252 29999ft 455kts
04-Mar-20 03:23 54.163099 172.439942 255 29996ft 455kts
04-Mar-20 03:24 54.129650 172.232056 255 29996ft 455kts
04-Mar-20 03:25 54.096208 172.024733 256 29996ft 455kts
04-Mar-20 03:26 54.062767 171.816061 255 29996ft 455kts
04-Mar-20 03:27 54.028440 171.609102 254 29996ft 455kts
04-Mar-20 03:28 53.993659 171.402453 254 29997ft 455kts
04-Mar-20 03:29 53.958471 171.195906 254 29997ft 455kts
04-Mar-20 03:30 53.922810 170.989038 254 29997ft 455kts
04-Mar-20 03:31 53.887096 170.784239 254 29997ft 455kts
04-Mar-20 03:32 53.850644 170.577593 254 29997ft 455kts
04-Mar-20 03:33 53.814253 170.373622 253 29997ft 455kts
04-Mar-20 03:34 53.777315 170.168894 253 29996ft 455kts
04-Mar-20 03:35 53.739867 169.963643 253 29996ft 455kts
04-Mar-20 03:36 53.702335 169.760194 253 29996ft 455kts
04-Mar-20 03:37 53.664319 169.556358 253 29996ft 455kts
04-Mar-20 03:38 53.626171 169.354012 253 29996ft 455kts
04-Mar-20 03:39 53.587337 169.150221 253 29996ft 455kts
04-Mar-20 03:40 53.548204 168.947044 252 29996ft 455kts
04-Mar-20 03:41 53.508915 168.744957 253 29996ft 455kts
04-Mar-20 03:42 53.469635 168.542574 252 29996ft 455kts
04-Mar-20 03:43 53.429278 168.341751 252 29996ft 455kts
04-Mar-20 03:44 53.378188 168.148424 242 29997ft 457kts
04-Mar-20 03:45 53.312726 167.965469 240 29997ft 457kts
04-Mar-20 03:46 53.247125 167.782757 240 29997ft 457kts
04-Mar-20 03:47 53.182813 167.599320 241 29997ft 457kts
04-Mar-20 03:48 53.118247 167.417730 240 29996ft 457kts
04-Mar-20 03:49 53.052729 167.235750 240 29996ft 457kts
04-Mar-20 03:50 52.987033 167.054720 240 29996ft 457kts
04-Mar-20 03:51 52.921132 166.874445 240 29996ft 457kts
04-Mar-20 03:52 52.854748 166.694150 240 29996ft 457kts
04-Mar-20 03:53 52.788295 166.514955 240 29996ft 457kts
04-Mar-20 03:54 52.721677 166.336584 239 29996ft 457kts
04-Mar-20 03:55 52.654575 166.158183 239 29997ft 457kts
04-Mar-20 03:56 52.587089 165.980020 239 29997ft 458kts
04-Mar-20 03:57 52.549008 165.880037 239 29996ft 458kts
04-Mar-20 03:58 52.549008 165.880037 239 29996ft 458kts
04-Mar-20 03:59 52.549008 165.880037 239 29996ft 458kts
04-Mar-20 04:00 52.549008 165.880037 239 29996ft 458kts
04-Mar-20 04:01 52.549008 165.880037 239 29996ft 458kts
04-Mar-20 04:02 52.549008 165.880037 239 29996ft 458kts
04-Mar-20 04:03 52.549008 165.880037 239 29996ft 458kts
04-Mar-20 04:04 52.549008 165.880037 239 29996ft 458kts
04-Mar-20 04:05 52.549008 165.880037 239 29996ft 458kts
04-Mar-20 04:06 52.549008 165.880037 239 29996ft 458kts
04-Mar-20 04:07 52.549008 165.880037 239 29996ft 458kts
04-Mar-20 04:08 52.549008 165.880037 239 29996ft 458kts
04-Mar-20 04:09 52.549008 165.880037 239 29996ft 458kts
04-Mar-20 04:10 52.549008 165.880037 239 29996ft 458kts
04-Mar-20 04:11 52.549008 165.880037 239 29996ft 458kts
04-Mar-20 04:12 52.549008 165.880037 239 29996ft 458kts
04-Mar-20 04:13 52.549008 165.880037 239 29996ft 458kts
04-Mar-20 04:14 52.549008 165.880037 239 29996ft 458kts
04-Mar-20 04:15 52.549008 165.880037 239 29996ft 458kts
04-Mar-20 04:16 52.549008 165.880037 239 29996ft 458kts
04-Mar-20 04:17 52.549008 165.880037 239 29996ft 458kts
04-Mar-20 04:18 52.549008 165.880037 239 29996ft 458kts
04-Mar-20 04:19 52.549008 165.880037 239 29996ft 458kts
04-Mar-20 04:20 52.549008 165.880037 239 29996ft 458kts
04-Mar-20 04:21 52.549008 165.880037 239 29996ft 458kts
04-Mar-20 04:22 52.549008 165.880037 239 29996ft 458kts
04-Mar-20 04:23 52.549008 165.880037 239 29996ft 458kts
04-Mar-20 04:24 52.549008 165.880037 239 29996ft 458kts
04-Mar-20 04:25 52.549008 165.880037 239 29996ft 458kts
04-Mar-20 04:26 52.549008 165.880037 239 29996ft 458kts
04-Mar-20 04:27 52.549008 165.880037 239 29996ft 458kts
04-Mar-20 04:28 52.549008 165.880037 239 29996ft 458kts
04-Mar-20 04:29 52.549008 165.880037 239 29996ft 458kts
04-Mar-20 04:30 52.549008 165.880037 239 29996ft 458kts
04-Mar-20 04:31 52.549008 165.880037 239 29996ft 458kts
04-Mar-20 04:32 52.549008 165.880037 239 29996ft 458kts
04-Mar-20 04:33 52.549008 165.880037 239 29996ft 458kts
04-Mar-20 04:34 52.549008 165.880037 239 29996ft 458kts
04-Mar-20 04:36 52.549008 165.880037 239 29996ft 458kts
04-Mar-20 04:37 52.549008 165.880037 239 29996ft 458kts
04-Mar-20 04:38 52.549008 165.880037 239 29996ft 458kts
04-Mar-20 04:39 52.549008 165.880037 239 29996ft 458kts
04-Mar-20 04:40 52.549008 165.880037 239 29996ft 458kts
04-Mar-20 04:41 52.549008 165.880037 239 29996ft 458kts
04-Mar-20 04:42 52.549008 165.880037 239 29996ft 458kts
04-Mar-20 04:43 52.549008 165.880037 239 29996ft 458kts
04-Mar-20 04:44 52.549008 165.880037 239 29996ft 458kts
04-Mar-20 04:45 52.536597 165.847539 239 29996ft 458kts
04-Mar-20 04:46 52.469086 165.671477 239 29997ft 458kts
04-Mar-20 04:47 52.400643 165.494218 239 29997ft 458kts
04-Mar-20 04:48 52.332514 165.318992 239 29996ft 458kts
04-Mar-20 04:49 52.263916 165.143772 238 29996ft 458kts
04-Mar-20 04:50 52.195025 164.969001 238 29996ft 458kts
04-Mar-20 04:51 52.125812 164.794612 238 29996ft 458kts
04-Mar-20 04:52 52.056570 164.621327 238 29996ft 458kts
04-Mar-20 04:52 51.998355 164.476538 238 29997ft 458kts
04-Mar-20 04:54 51.916836 164.275149 238 29997ft 458kts
04-Mar-20 04:55 51.847199 164.104347 238 29997ft 458kts
04-Mar-20 04:56 51.776751 163.931212 237 29996ft 458kts
04-Mar-20 04:57 51.705724 163.760361 237 29996ft 458kts
04-Mar-20 04:57 51.646668 163.618722 237 29996ft 458kts
04-Mar-20 04:59 51.563411 163.421268 237 29996ft 458kts
04-Mar-20 04:59 51.503122 163.279487 237 29997ft 458kts
04-Mar-20 05:00 51.431529 163.110030 237 29997ft 458kts
04-Mar-20 05:02 51.348197 162.913227 237 29997ft 458kts
04-Mar-20 05:02 51.288054 162.773153 237 29996ft 458kts
04-Mar-20 05:03 51.215886 162.606196 237 29996ft 458kts
04-Mar-20 05:04 51.142868 162.438377 236 29996ft 458kts
04-Mar-20 05:05 51.070164 162.272352 236 29996ft 458kts
04-Mar-20 05:06 50.997139 162.106652 236 29997ft 458kts
04-Mar-20 05:07 50.937161 161.971340 236 29996ft 458kts
04-Mar-20 05:08 50.863484 161.806074 236 29996ft 458kts
04-Mar-20 05:09 50.789718 161.641650 236 29996ft 458kts
04-Mar-20 05:10 50.715682 161.477656 236 29996ft 458kts
04-Mar-20 05:11 50.641533 161.314435 236 29996ft 458kts
04-Mar-20 05:12 50.566990 161.151359 235 29996ft 458kts
04-Mar-20 05:13 50.491974 160.988265 235 29997ft 458kts
04-Mar-20 05:14 50.417146 160.826574 235 29997ft 459kts
04-Mar-20 05:15 50.342285 160.664490 235 29997ft 459kts
04-Mar-20 05:16 50.266743 160.504105 235 29997ft 459kts
04-Mar-20 05:17 50.190850 160.343588 235 29996ft 459kts
04-Mar-20 05:18 50.114975 160.184624 235 29996ft 459kts
04-Mar-20 05:19 50.038083 160.024541 234 29996ft 459kts
04-Mar-20 05:20 49.962153 159.865496 235 29996ft 459kts
04-Mar-20 05:21 49.886213 159.707074 235 29998ft 459kts
04-Mar-20 05:22 49.809458 159.549088 234 29996ft 459kts
04-Mar-20 05:23 49.732365 159.392174 234 29997ft 459kts
04-Mar-20 05:24 49.655469 159.235742 234 29997ft 459kts
04-Mar-20 05:25 49.577629 159.078604 234 29996ft 459kts
04-Mar-20 05:26 49.499682 158.922259 234 29995ft 459kts
04-Mar-20 05:27 49.422939 158.765816 234 29996ft 459kts
04-Mar-20 05:28 49.345084 158.609738 234 29996ft 459kts
04-Mar-20 05:29 49.267678 158.455856 234 29996ft 459kts
04-Mar-20 05:30 49.189157 158.300723 234 29997ft 459kts
04-Mar-20 05:31 49.110576 158.146381 233 29997ft 459kts
04-Mar-20 05:32 49.031878 157.992700 233 29997ft 459kts
04-Mar-20 05:33 48.953317 157.840165 233 29996ft 459kts
04-Mar-20 05:34 48.874233 157.687488 233 29996ft 459kts
04-Mar-20 05:35 48.794926 157.535252 233 29996ft 459kts
04-Mar-20 05:36 48.715648 157.383934 233 29996ft 459kts
04-Mar-20 05:37 48.635672 157.232143 233 29996ft 459kts
04-Mar-20 05:38 48.556365 157.082467 233 29997ft 459kts
04-Mar-20 05:39 48.475776 156.931224 233 29997ft 459kts
04-Mar-20 05:40 48.395600 156.781597 232 29997ft 459kts
04-Mar-20 05:41 48.315190 156.632367 232 29996ft 459kts
04-Mar-20 05:42 48.234892 156.484166 232 29996ft 459kts
04-Mar-20 05:43 48.153684 156.335110 232 29996ft 459kts
04-Mar-20 05:44 48.072750 156.187377 232 29996ft 459kts
04-Mar-20 05:45 47.991794 156.040409 232 29997ft 459kts
04-Mar-20 05:46 47.910257 155.893194 232 29997ft 459kts
04-Mar-20 05:47 47.828257 155.745946 232 29996ft 459kts
04-Mar-20 05:48 47.746693 155.600276 232 29996ft 459kts
04-Mar-20 05:49 47.664782 155.454772 231 29996ft 460kts
04-Mar-20 05:50 47.582573 155.309523 231 29996ft 460kts
04-Mar-20 05:51 47.499918 155.164270 231 29997ft 460kts
04-Mar-20 05:52 47.417590 155.020360 231 29997ft 460kts
04-Mar-20 05:53 47.334782 154.876380 231 29996ft 460kts
04-Mar-20 05:54 47.252056 154.733301 231 29996ft 460kts
04-Mar-20 05:55 47.168726 154.589938 231 29996ft 460kts
04-Mar-20 05:56 47.085961 154.448292 231 29996ft 460kts
04-Mar-20 05:57 47.002191 154.305675 231 29996ft 460kts
04-Mar-20 05:58 46.918448 154.163847 231 29997ft 460kts
04-Mar-20 05:59 46.834582 154.022548 230 29997ft 460kts
04-Mar-20 06:00 46.750458 153.881548 230 29996ft 460kts
04-Mar-20 06:01 46.666172 153.741003 230 29996ft 460kts
04-Mar-20 06:02 46.581844 153.601108 230 29996ft 460kts
04-Mar-20 06:03 46.497488 153.461876 230 29996ft 460kts
04-Mar-20 06:04 46.413100 153.322846 230 29997ft 460kts
04-Mar-20 06:05 46.327979 153.183623 230 29997ft 460kts
04-Mar-20 06:06 46.242843 153.045720 230 29997ft 460kts
04-Mar-20 06:07 46.157109 152.908500 229 29997ft 460kts
04-Mar-20 06:08 46.070778 152.772070 229 29996ft 460kts
04-Mar-20 06:09 45.984556 152.636486 229 29996ft 460kts
04-Mar-20 06:10 45.898327 152.499173 229 29996ft 460kts
04-Mar-20 06:11 45.812395 152.364168 229 29997ft 460kts
04-Mar-20 06:12 45.725589 152.228739 229 29997ft 460kts
04-Mar-20 06:13 45.638956 152.094288 229 29997ft 460kts
04-Mar-20 06:14 45.551957 151.959938 229 29996ft 460kts
04-Mar-20 06:15 45.465244 151.826683 229 29996ft 460kts
04-Mar-20 06:16 45.377814 151.692980 229 29996ft 460kts
04-Mar-20 06:17 45.290002 151.559346 228 29997ft 460kts
04-Mar-20 06:18 45.202509 151.426842 228 29997ft 460kts
04-Mar-20 06:19 45.114664 151.294447 228 29996ft 460kts
04-Mar-20 06:20 45.026875 151.162770 228 29996ft 460kts
04-Mar-20 06:21 44.938802 151.031299 228 29996ft 460kts
04-Mar-20 06:22 44.850783 150.900533 228 29996ft 460kts
04-Mar-20 06:23 44.762216 150.769577 228 29997ft 461kts
04-Mar-20 06:24 44.673488 150.639006 228 29997ft 461kts
04-Mar-20 06:25 44.584778 150.509077 228 29996ft 461kts
04-Mar-20 06:26 44.496374 150.380204 228 29996ft 461kts
04-Mar-20 06:27 44.407696 150.251532 228 29996ft 461kts
04-Mar-20 06:28 44.318015 150.122014 227 29996ft 461kts
04-Mar-20 06:29 44.228704 149.993629 227 29997ft 461kts
04-Mar-20 06:30 44.139306 149.865716 227 29997ft 461kts
04-Mar-20 06:31 44.049861 149.738325 227 29996ft 461kts
04-Mar-20 06:32 43.960047 149.610995 227 29996ft 461kts
04-Mar-20 06:33 43.869875 149.483745 227 29996ft 461kts
04-Mar-20 06:34 43.780271 149.357872 227 29997ft 461kts
04-Mar-20 06:35 43.690039 149.231693 227 29997ft 461kts
04-Mar-20 06:36 43.599535 149.105706 227 29997ft 461kts
04-Mar-20 06:37 43.508975 148.980212 227 29996ft 461kts
04-Mar-20 06:38 43.418709 148.855685 227 29996ft 461kts
04-Mar-20 06:39 43.328061 148.731192 227 29996ft 461kts
04-Mar-20 06:40 43.236996 148.606684 226 29996ft 461kts
04-Mar-20 06:41 43.146208 148.483106 226 29997ft 461kts
04-Mar-20 06:42 43.054744 148.359159 226 29997ft 461kts
04-Mar-20 06:43 42.963690 148.236312 226 29997ft 461kts
04-Mar-20 06:44 42.872087 148.113267 226 29996ft 461kts
04-Mar-20 06:45 42.780665 147.991001 226 29996ft 461kts
04-Mar-20 06:46 42.689447 147.869536 226 29996ft 461kts
04-Mar-20 06:47 42.597347 147.746999 226 29997ft 461kts
04-Mar-20 06:48 42.505271 147.625480 226 29996ft 461kts
04-Mar-20 06:49 42.413478 147.505161 226 29996ft 461kts
04-Mar-20 06:50 42.320812 147.384003 226 29996ft 461kts
04-Mar-20 06:51 42.228387 147.263734 226 29996ft 461kts
04-Mar-20 06:52 42.136007 147.143627 226 29997ft 461kts
04-Mar-20 06:53 42.043744 147.023225 225 29997ft 461kts
04-Mar-20 06:55 41.951342 146.904464 225 29996ft 461kts
04-Mar-20 06:56 41.858464 146.785379 225 29996ft 461kts
04-Mar-20 06:57 41.765285 146.666576 225 29996ft 461kts
04-Mar-20 06:58 41.672259 146.548498 225 29996ft 461kts
04-Mar-20 06:59 41.579731 146.430023 225 29997ft 461kts
04-Mar-20 07:00 41.486355 146.311733 225 29997ft 461kts
04-Mar-20 07:01 41.393399 146.194630 225 29996ft 461kts
04-Mar-20 07:02 41.299940 146.077399 225 29996ft 461kts
04-Mar-20 07:03 41.206473 145.960645 225 29996ft 461kts
04-Mar-20 07:04 41.112684 145.843967 225 29996ft 461kts
04-Mar-20 07:05 41.019106 145.728029 225 29997ft 462kts
04-Mar-20 07:06 40.924620 145.611443 225 29997ft 462kts
04-Mar-20 07:07 40.830600 145.495902 225 29996ft 462kts
04-Mar-20 07:08 40.736227 145.380396 225 29996ft 462kts
04-Mar-20 07:09 40.642369 145.265780 225 29996ft 461kts
04-Mar-20 07:10 40.547957 145.150964 224 29996ft 462kts
04-Mar-20 07:11 40.453402 145.036714 226 29995ft 461kts
04-Mar-20 07:12 40.377201 144.902672 238 29995ft 458kts
04-Mar-20 07:13 40.309923 144.761815 239 29996ft 457kts
04-Mar-20 07:14 40.243250 144.620362 239 29996ft 457kts
04-Mar-20 07:14 40.187618 144.500682 240 29997ft 457kts
04-Mar-20 07:16 40.109832 144.335545 239 29997ft 457kts
04-Mar-20 07:16 40.054077 144.218012 239 29996ft 458kts
04-Mar-20 07:18 39.975845 144.053884 239 29996ft 458kts
04-Mar-20 07:18 39.919497 143.936202 239 29996ft 458kts
04-Mar-20 07:19 39.852379 143.796602 239 29996ft 458kts
04-Mar-20 07:20 39.784397 143.655833 239 29997ft 458kts
04-Mar-20 07:21 39.716211 143.515273 239 29997ft 458kts
04-Mar-20 07:22 39.648431 143.376165 239 29997ft 458kts
04-Mar-20 07:23 39.580217 143.236782 239 29997ft 458kts
04-Mar-20 07:24 39.511469 143.096925 239 29996ft 458kts
04-Mar-20 07:25 39.442625 142.957483 238 29997ft 467kts
04-Mar-20 07:26 39.372431 142.815127 238 29997ft 471kts
04-Mar-20 07:27 39.301335 142.672794 238 29996ft 471kts
04-Mar-20 07:28 39.229534 142.531503 235 29996ft 472kts
04-Mar-20 07:29 39.145143 142.401875 230 29997ft 473kts
04-Mar-20 07:30 39.059122 142.274569 231 29997ft 473kts
04-Mar-20 07:31 38.972903 142.145378 231 29997ft 473kts
04-Mar-20 07:32 38.887448 142.017322 231 29996ft 473kts
04-Mar-20 07:33 38.801719 141.889908 231 29996ft 473kts
04-Mar-20 07:34 38.715502 141.762331 230 29996ft 473kts
04-Mar-20 07:35 38.629144 141.635063 230 29996ft 473kts
04-Mar-20 07:36 38.542735 141.508225 230 29996ft 473kts
04-Mar-20 07:37 38.456486 141.382124 230 29997ft 473kts
04-Mar-20 07:38 38.369915 141.256047 230 29996ft 473kts
04-Mar-20 07:39 38.283226 141.129744 230 29996ft 473kts
04-Mar-20 07:40 38.196163 141.004321 230 29997ft 473kts
04-Mar-20 07:41 38.135594 140.859601 256 29996ft 468kts
04-Mar-20 07:42 38.117826 140.696486 263 29996ft 467kts
04-Mar-20 07:43 38.101712 140.532889 262 29996ft 467kts
04-Mar-20 07:44 38.084073 140.369064 262 29996ft 467kts
04-Mar-20 07:45 38.067334 140.205539 263 29997ft 467kts
04-Mar-20 07:46 38.051400 140.042255 263 29996ft 467kts
04-Mar-20 07:47 38.035125 139.878483 263 29996ft 467kts
04-Mar-20 07:48 38.019898 139.716085 263 29997ft 467kts
04-Mar-20 07:49 38.003059 139.551797 262 29997ft 467kts
04-Mar-20 07:50 37.986233 139.389096 263 29993ft 467kts
04-Mar-20 07:51 37.969849 139.226107 262 29997ft 467kts
04-Mar-20 07:52 37.955452 139.062020 267 29996ft 467kts
04-Mar-20 07:53 37.952543 138.897765 268 29997ft 467kts
04-Mar-20 07:54 37.948282 138.732548 268 29997ft 467kts
04-Mar-20 07:55 37.944313 138.568614 268 29996ft 467kts
04-Mar-20 07:56 37.940137 138.403921 267 29996ft 467kts
04-Mar-20 07:57 37.935009 138.240086 267 29996ft 467kts
04-Mar-20 07:58 37.929722 138.074863 267 29997ft 467kts
04-Mar-20 07:59 37.924136 137.910678 267 29997ft 467kts
04-Mar-20 08:00 37.918320 137.746493 267 29997ft 467kts
04-Mar-20 08:01 37.913324 137.582609 267 29996ft 467kts
04-Mar-20 08:02 37.907061 137.418089 267 29996ft 467kts
04-Mar-20 08:03 37.900659 137.253939 267 29996ft 467kts
04-Mar-20 08:04 37.894543 137.089715 267 29996ft 467kts
04-Mar-20 08:05 37.887577 136.925377 267 29997ft 467kts
04-Mar-20 08:06 37.880530 136.761143 267 29997ft 467kts
04-Mar-20 08:07 37.873418 136.597255 266 29997ft 467kts
04-Mar-20 08:08 37.865946 136.433180 266 29996ft 467kts
04-Mar-20 08:09 37.858881 136.268918 267 29996ft 467kts
04-Mar-20 08:10 37.851724 136.104875 266 29996ft 467kts
04-Mar-20 08:11 37.844058 135.941657 266 29996ft 467kts
04-Mar-20 08:12 37.836040 135.776719 266 29996ft 467kts
04-Mar-20 08:13 37.827835 135.612795 266 29997ft 467kts
04-Mar-20 08:14 37.819436 135.449553 266 29997ft 467kts
04-Mar-20 08:15 37.810784 135.285814 266 29997ft 467kts
04-Mar-20 08:16 37.801869 135.121465 266 29996ft 467kts
04-Mar-20 08:17 37.792795 134.958378 266 29996ft 467kts
04-Mar-20 08:18 37.783405 134.793747 266 29996ft 467kts
04-Mar-20 08:19 37.773815 134.629661 265 29996ft 467kts
04-Mar-20 08:20 37.764062 134.466663 265 29996ft 467kts
04-Mar-20 08:21 37.754020 134.302668 265 29997ft 467kts
04-Mar-20 08:22 37.743790 134.139330 265 29997ft 467kts
04-Mar-20 08:23 37.733309 133.975647 265 29996ft 467kts
04-Mar-20 08:24 37.722594 133.811867 265 29996ft 467kts
04-Mar-20 08:25 37.711692 133.648731 265 29996ft 467kts
04-Mar-20 08:26 37.700547 133.485343 265 29996ft 467kts
04-Mar-20 08:27 37.689531 133.321571 265 29997ft 467kts
04-Mar-20 08:28 37.677718 133.158127 264 29997ft 467kts
04-Mar-20 08:29 37.665770 132.995220 265 29996ft 467kts
04-Mar-20 08:30 37.653737 132.832188 264 29996ft 467kts
04-Mar-20 08:31 37.641392 132.668635 266 29997ft 467kts
04-Mar-20 08:32 37.640734 132.505038 270 29997ft 467kts
04-Mar-20 08:33 37.641171 132.340705 269 29997ft 467kts
04-Mar-20 08:34 37.641187 132.176952 270 29996ft 467kts
04-Mar-20 08:35 37.641074 132.013258 269 29996ft 467kts
04-Mar-20 08:36 37.640823 131.849580 269 29996ft 467kts
04-Mar-20 08:37 37.639698 131.685956 269 29997ft 467kts
04-Mar-20 08:38 37.639930 131.521992 271 30000ft 467kts
04-Mar-20 08:39 37.645529 131.358046 272 29996ft 467kts
04-Mar-20 08:40 37.650383 131.194556 271 29996ft 467kts
04-Mar-20 08:41 37.655194 131.046700 272 29996ft 467kts
04-Mar-20 08:42 37.660202 130.882812 271 29996ft 467kts
04-Mar-20 08:43 37.664725 130.718504 271 29996ft 467kts
04-Mar-20 08:44 37.668962 130.555267 271 29997ft 467kts
04-Mar-20 08:45 37.672990 130.391206 271 29996ft 467kts
04-Mar-20 08:46 37.676779 130.227645 271 29996ft 467kts
04-Mar-20 08:47 37.680350 130.063678 271 29996ft 467kts
04-Mar-20 08:48 37.683694 129.899719 271 29997ft 467kts
04-Mar-20 08:49 37.686816 129.735523 271 29996ft 467kts
04-Mar-20 08:50 37.689692 129.572385 271 29538ft 462kts
04-Mar-20 08:51 37.692294 129.412440 271 27011ft 444kts
04-Mar-20 08:52 37.694571 129.260209 270 24617ft 428kts
04-Mar-20 08:53 37.696887 129.112214 271 22286ft 412kts
04-Mar-20 08:54 37.698640 128.970090 270 20307ft 397kts
04-Mar-20 08:55 37.699996 128.831408 270 19998ft 398kts
04-Mar-20 08:56 37.693013 128.695768 261 19176ft 374kts
04-Mar-20 08:57 37.673252 128.569175 259 17868ft 363kts
04-Mar-20 08:58 37.653945 128.445325 258 17010ft 360kts
04-Mar-20 08:59 37.634886 128.321650 258 16996ft 360kts
04-Mar-20 09:00 37.616333 128.197294 259 16997ft 359kts
04-Mar-20 09:01 37.597278 128.073558 259 16996ft 358kts
04-Mar-20 09:02 37.578477 127.950319 259 16996ft 358kts
04-Mar-20 09:03 37.558900 127.826688 259 16996ft 358kts
04-Mar-20 09:04 37.539413 127.704246 259 16996ft 358kts
04-Mar-20 09:05 37.519842 127.580067 258 16996ft 359kts
04-Mar-20 09:06 37.466215 127.475126 229 16996ft 364kts
04-Mar-20 09:07 37.395703 127.387305 225 16841ft 341kts
04-Mar-20 09:08 37.330384 127.311279 225 16321ft 302kts
04-Mar-20 09:09 37.270217 127.240928 228 15057ft 293kts
04-Mar-20 09:10 37.239952 127.149635 259 13486ft 281kts
04-Mar-20 09:12 37.185303 127.091106 186 12029ft 291kts
04-Mar-20 09:13 37.104448 127.089600 196 11951ft 270kts
04-Mar-20 09:14 37.039868 127.060374 212 11919ft 235kts
04-Mar-20 09:15 36.992239 127.009502 259 11210ft 225kts
04-Mar-20 09:16 37.024720 126.944872 310 10220ft 227kts
04-Mar-20 09:17 37.066352 126.886062 306 9287ft 223kts
04-Mar-20 09:18 37.104703 126.825582 304 8913ft 221kts
04-Mar-20 09:19 37.140439 126.767874 304 8590ft 196kts
04-Mar-20 09:20 37.173306 126.714892 305 7787ft 190kts
04-Mar-20 09:21 37.212314 126.670206 315 6914ft 189kts
04-Mar-20 09:22 37.250812 126.627439 315 6045ft 186kts
04-Mar-20 09:23 37.289766 126.583338 317 5078ft 187kts
04-Mar-20 09:24 37.329937 126.541113 327 4076ft 189kts
04-Mar-20 09:25 37.372108 126.509126 329 2596ft 161kts
04-Mar-20 09:26 37.413566 126.491628 342 1148ft 162kts
04-Mar-20 09:27 37.448968 126.465409 326 69ft 126kts
04-Mar-20 09:28 37.460693 126.455014 324 36ft 36kts
04-Mar-20 09:29 37.469078 126.447987 17 36ft 7kts
04-Mar-20 09:30 37.471148 126.448866 326 36ft 2kts
04-Mar-20 09:30 37.471198 126.448824 326 36ft 0kts
04-Mar-20 09:32 37.475188 126.445307 324 36ft 1kts
04-Mar-20 09:33 37.476077 126.444525 325 36ft 23kts
04-Mar-20 09:33 37.478670 126.441469 234 36ft 11kts
04-Mar-20 09:35 37.473830 126.439995 142 36ft 33kts
04-Mar-20 09:36 37.466048 126.446888 146 36ft 25kts
04-Mar-20 09:36 37.459715 126.452386 145 36ft 39kts
04-Mar-20 09:37 37.455052 126.455399 144 36ft 17kts
04-Mar-20 09:38 37.452419 126.454143 227 36ft 0kts
04-Mar-20 09:39 37.452417 126.454141 227 36ft 0kts
04-Mar-20 09:40 37.452416 126.454139 227 36ft 0kts
04-Mar-20 09:41 37.452415 126.454138 227 36ft 0kts

Navigation Log

Ident Type
Flight plan parsing failed, navigation log unavailable